Time;durP1;ratioP1;P1;durP2;ratioP2;P2;SDS_P1;SDS_P2;PMS_P1;PMS_P2;Temp;Humidity;BMP_temperature;BMP_pressure;BME280_temperature;BME280_humidity;BME280_pressure;Samples;Min_cycle;Max_cycle;Signal;HPM_P1;HPM_P2
2022/01/21 00:01:34;;;;;;;10.60;5.65;;;1.80;77.80;;;;;;5096032;28;20218;-56
2022/01/21 00:04:01;;;;;;;5.72;5.18;;;1.90;77.40;;;;;;5095916;28;20236;-59
2022/01/21 00:06:28;;;;;;;6.90;5.13;;;2.00;77.10;;;;;;5095989;28;20210;-59
2022/01/21 00:08:55;;;;;;;9.10;4.75;;;2.00;76.70;;;;;;5095978;28;20208;-60
2022/01/21 00:11:25;;;;;;;5.68;5.10;;;1.90;76.60;;;;;;5095838;28;20204;-59
2022/01/21 00:13:52;;;;;;;5.00;4.60;;;1.80;76.90;;;;;;5094529;28;20207;-57
2022/01/21 00:16:22;;;;;;;7.35;5.00;;;1.70;77.40;;;;;;5095865;28;20234;-59
2022/01/21 00:18:56;;;;;;;5.57;4.97;;;1.70;77.40;;;;;;5095700;28;20564;-58
2022/01/21 00:32:23;;;;;;;5.78;4.90;;;1.40;78.40;;;;;;5095797;28;20289;-59
2022/01/21 00:34:50;;;;;;;5.50;4.80;;;1.40;78.40;;;;;;5094997;28;20213;-58
2022/01/21 00:37:17;;;;;;;9.50;5.68;;;1.30;78.40;;;;;;5095437;28;20219;-60
2022/01/21 00:39:48;;;;;;;5.97;5.47;;;1.30;78.90;;;;;;5095161;28;20232;-56
2022/01/21 00:42:34;;;;;;;9.93;5.15;;;1.30;78.50;;;;;;5095405;28;20551;-56
2022/01/21 00:45:01;;;;;;;5.70;4.88;;;1.30;78.40;;;;;;5093991;28;20207;-56
2022/01/21 00:47:29;;;;;;;7.03;5.43;;;1.40;78.10;;;;;;5095362;28;20288;-56
2022/01/21 00:49:56;;;;;;;7.40;5.13;;;1.40;77.90;;;;;;5095288;28;20204;-59
2022/01/21 00:52:23;;;;;;;8.40;5.13;;;1.40;78.00;;;;;;5094988;28;20206;-59
2022/01/21 00:54:50;;;;;;;5.75;4.88;;;1.50;78.10;;;;;;5094934;28;20650;-59
2022/01/21 00:57:18;;;;;;;5.10;4.60;;;1.50;77.90;;;;;;5095100;28;20212;-59
2022/01/21 00:59:45;;;;;;;5.97;5.43;;;1.60;77.60;;;;;;5093848;28;20211;-59
2022/01/21 01:02:12;;;;;;;7.35;5.20;;;1.60;77.40;;;;;;5094907;28;20222;-58
2022/01/21 01:04:39;;;;;;;6.43;5.03;;;1.50;77.90;;;;;;5094877;28;20210;-56
2022/01/21 01:07:06;;;;;;;6.80;5.25;;;1.60;77.80;;;;;;5094861;28;20204;-59
2022/01/21 01:09:34;;;;;;;5.85;4.60;;;1.60;77.90;;;;;;5094875;28;20208;-58
2022/01/21 01:12:16;;;;;;;5.85;5.00;;;1.70;77.30;;;;;;5094670;28;20211;-60
2022/01/21 01:20:13;;;;;;;5.93;4.65;;;1.90;77.00;;;;;;5094768;28;20276;-57
2022/01/21 01:22:48;;;;;;;6.93;4.85;;;1.80;76.90;;;;;;5094534;28;20208;-56
2022/01/21 01:28:01;;;;;;;7.47;5.45;;;1.80;76.80;;;;;;5094515;28;20265;-60
2022/01/21 01:30:32;;;;;;;4.85;4.35;;;1.80;76.80;;;;;;5093310;28;20568;-60
2022/01/21 01:33:00;;;;;;;8.27;4.90;;;1.80;76.70;;;;;;5094422;28;20260;-60
2022/01/21 01:35:32;;;;;;;9.68;4.88;;;1.70;76.90;;;;;;5094281;28;20315;-60
2022/01/21 01:38:24;;;;;;;5.30;4.70;;;1.70;77.30;;;;;;5094150;28;20662;-59
2022/01/21 01:40:55;;;;;;;5.03;4.50;;;1.70;77.50;;;;;;5093991;28;20219;-59
2022/01/21 01:51:49;;;;;;;4.95;4.47;;;1.70;77.80;;;;;;5094206;28;20207;-60
2022/01/21 01:54:17;;;;;;;7.80;5.40;;;1.60;77.80;;;;;;5094038;28;20210;-59
2022/01/21 01:56:47;;;;;;;8.00;4.78;;;1.60;78.00;;;;;;5093689;28;20228;-58
2022/01/21 01:59:13;;;;;;;8.23;5.20;;;1.60;77.80;;;;;;5092617;28;20204;-56
2022/01/21 02:01:42;;;;;;;8.07;4.70;;;1.60;77.70;;;;;;5093939;28;20218;-58
2022/01/21 02:04:09;;;;;;;6.43;4.43;;;1.60;77.90;;;;;;5093658;28;20231;-58
2022/01/21 02:06:36;;;;;;;4.65;4.25;;;1.60;78.00;;;;;;5093637;28;20211;-59
2022/01/21 02:09:03;;;;;;;6.45;4.28;;;1.60;78.10;;;;;;5093821;28;20283;-60
2022/01/21 02:11:30;;;;;;;5.45;4.93;;;1.60;78.30;;;;;;5093414;28;20299;-59
2022/01/21 02:13:59;;;;;;;7.65;4.93;;;1.60;78.10;;;;;;5092362;28;20211;-58
2022/01/21 02:16:38;;;;;;;5.03;4.50;;;1.60;78.50;;;;;;5093479;28;20695;-60
2022/01/21 02:21:52;;;;;;;8.73;4.30;;;1.70;78.30;;;;;;5093491;28;20337;-59
2022/01/21 02:24:22;;;;;;;5.85;4.55;;;1.70;78.20;;;;;;5093513;28;20291;-59
2022/01/21 02:26:51;;;;;;;5.88;4.70;;;1.70;78.10;;;;;;5093169;28;20220;-60
2022/01/21 02:29:27;;;;;;;6.03;5.25;;;1.70;78.30;;;;;;5091996;28;20210;-59
2022/01/21 02:31:57;;;;;;;8.27;5.00;;;1.70;78.40;;;;;;5093467;28;20203;-60
2022/01/21 02:34:24;;;;;;;4.82;4.10;;;1.60;78.60;;;;;;5093276;28;20207;-60
2022/01/21 02:36:52;;;;;;;4.50;4.10;;;1.60;78.80;;;;;;5093113;28;20273;-57
2022/01/21 02:39:20;;;;;;;4.85;4.45;;;1.60;79.00;;;;;;5093195;28;20208;-59
2022/01/21 02:41:46;;;;;;;6.13;4.47;;;1.70;78.80;;;;;;5093080;28;20200;-57
2022/01/21 02:44:17;;;;;;;7.93;5.32;;;1.60;78.40;;;;;;5091809;28;20196;-58
2022/01/21 02:46:45;;;;;;;8.02;4.80;;;1.50;78.90;;;;;;5093110;28;20204;-60
2022/01/21 02:49:13;;;;;;;5.45;4.93;;;1.60;78.70;;;;;;5092932;28;20730;-57
2022/01/21 02:51:40;;;;;;;9.60;5.13;;;1.70;78.30;;;;;;5093048;28;20202;-59
2022/01/21 02:54:08;;;;;;;4.75;4.30;;;1.70;78.20;;;;;;5093082;28;20568;-60
2022/01/21 02:56:39;;;;;;;10.55;4.10;;;1.70;77.60;;;;;;5092740;28;20227;-58
2022/01/21 02:59:08;;;;;;;7.22;4.88;;;1.70;77.60;;;;;;5091413;28;20200;-57
2022/01/21 03:01:36;;;;;;;6.53;4.80;;;1.70;77.40;;;;;;5092868;28;20197;-58
2022/01/21 03:04:05;;;;;;;9.90;5.35;;;1.70;77.90;;;;;;5092758;28;20579;-60
2022/01/21 03:06:32;;;;;;;5.25;4.75;;;1.70;77.70;;;;;;5092869;28;20290;-59
2022/01/21 03:09:00;;;;;;;4.88;4.40;;;1.80;77.40;;;;;;5092793;28;20719;-59
2022/01/21 03:11:29;;;;;;;7.13;5.40;;;1.70;77.40;;;;;;5092693;28;20199;-59
2022/01/21 03:13:57;;;;;;;6.55;5.15;;;1.70;78.10;;;;;;5091610;28;20204;-59
2022/01/21 03:16:24;;;;;;;10.10;4.40;;;1.70;77.90;;;;;;5092714;28;20238;-61
2022/01/21 03:18:51;;;;;;;7.28;5.00;;;1.80;77.60;;;;;;5092790;28;20200;-58
2022/01/21 03:21:18;;;;;;;7.43;5.32;;;1.70;77.50;;;;;;5092879;28;20226;-61
2022/01/21 03:23:47;;;;;;;5.65;5.03;;;1.70;77.70;;;;;;5092880;28;20299;-60
2022/01/21 03:26:18;;;;;;;5.55;5.10;;;1.60;77.90;;;;;;5092579;28;20228;-60
2022/01/21 03:28:49;;;;;;;5.22;4.70;;;1.60;78.00;;;;;;5091167;28;20207;-59
2022/01/21 03:31:16;;;;;;;7.65;5.50;;;1.60;78.20;;;;;;5092734;28;20208;-60
2022/01/21 03:33:44;;;;;;;6.45;5.28;;;1.60;78.30;;;;;;5092644;28;20235;-60
2022/01/21 03:36:11;;;;;;;8.95;4.80;;;1.60;78.00;;;;;;5092609;28;20577;-59
2022/01/21 03:38:39;;;;;;;4.93;4.43;;;1.60;78.10;;;;;;5092629;28;20204;-59
2022/01/21 03:41:06;;;;;;;11.75;5.20;;;1.50;78.20;;;;;;5092395;28;20196;-57
2022/01/21 03:43:33;;;;;;;7.97;4.80;;;1.50;78.10;;;;;;5091239;28;20204;-60
2022/01/21 03:46:02;;;;;;;7.70;5.40;;;1.50;78.50;;;;;;5092639;28;20294;-59
2022/01/21 03:48:29;;;;;;;6.63;4.70;;;1.60;78.30;;;;;;5092575;28;20206;-59
2022/01/21 03:50:56;;;;;;;7.60;5.00;;;1.50;78.40;;;;;;5092523;28;20204;-60
2022/01/21 03:53:23;;;;;;;12.68;5.95;;;1.60;78.30;;;;;;5092453;28;20227;-59
2022/01/21 03:55:50;;;;;;;9.63;4.65;;;1.50;78.00;;;;;;5092149;28;20208;-60
2022/01/21 03:58:17;;;;;;;9.15;5.53;;;1.60;78.30;;;;;;5092519;28;20602;-59
2022/01/21 04:00:47;;;;;;;6.05;4.75;;;1.70;78.30;;;;;;5091484;28;20215;-60
2022/01/21 04:03:15;;;;;;;6.05;4.65;;;1.70;78.10;;;;;;5092244;28;20228;-59
2022/01/21 04:05:42;;;;;;;8.43;5.40;;;1.70;77.70;;;;;;5092248;28;20200;-58
2022/01/21 04:08:10;;;;;;;8.18;6.28;;;1.70;77.60;;;;;;5092374;28;20204;-58
2022/01/21 04:10:41;;;;;;;7.05;6.28;;;1.60;77.60;;;;;;5093696;28;20228;-60
2022/01/21 04:13:14;;;;;;;5.90;5.32;;;1.60;78.00;;;;;;5096016;28;20201;-59
2022/01/21 04:15:42;;;;;;;9.63;4.80;;;1.40;78.80;;;;;;5094757;28;20208;-60
2022/01/21 04:18:09;;;;;;;5.72;4.50;;;1.40;78.50;;;;;;5095869;28;20422;-58
2022/01/21 04:20:37;;;;;;;7.93;5.70;;;1.40;78.50;;;;;;5095918;28;20215;-59
2022/01/21 04:23:04;;;;;;;10.80;6.30;;;1.40;78.50;;;;;;5095633;28;20200;-59
2022/01/21 04:25:32;;;;;;;9.70;5.28;;;1.40;78.10;;;;;;5095531;28;20586;-59
2022/01/21 04:27:59;;;;;;;8.43;5.80;;;1.40;78.60;;;;;;5095645;28;20218;-59
2022/01/21 04:30:26;;;;;;;10.55;6.18;;;1.40;78.40;;;;;;5094315;28;20200;-59
2022/01/21 04:32:53;;;;;;;8.27;5.85;;;1.50;78.40;;;;;;5095597;28;20201;-59
2022/01/21 04:35:20;;;;;;;10.60;6.30;;;1.50;78.10;;;;;;5095532;28;20291;-57
2022/01/21 04:37:53;;;;;;;6.05;5.45;;;1.50;78.00;;;;;;5095243;28;20234;-60
2022/01/21 04:40:23;;;;;;;7.35;4.18;;;1.50;78.20;;;;;;5095291;28;20214;-60
2022/01/21 04:48:19;;;;;;;13.07;5.30;;;1.50;78.40;;;;;;5095421;28;20707;-60
2022/01/21 04:50:54;;;;;;;9.60;4.90;;;1.50;78.10;;;;;;5095322;28;20638;-60
2022/01/21 04:53:24;;;;;;;9.00;5.30;;;1.50;78.20;;;;;;5095290;28;20199;-59
2022/01/21 04:55:51;;;;;;;11.25;6.68;;;1.60;77.90;;;;;;5094962;28;20206;-59
2022/01/21 04:58:18;;;;;;;8.73;6.38;;;1.50;78.10;;;;;;5094994;28;20323;-58
2022/01/21 05:00:44;;;;;;;5.75;5.15;;;1.60;78.30;;;;;;5094136;28;20659;-56
2022/01/21 05:03:11;;;;;;;8.02;5.57;;;1.60;78.10;;;;;;5094901;28;20240;-59
2022/01/21 05:05:39;;;;;;;6.85;6.25;;;1.50;78.20;;;;;;5094981;28;20294;-57
2022/01/21 05:08:09;;;;;;;9.10;4.60;;;1.40;78.60;;;;;;5094787;28;20658;-59
2022/01/21 05:10:38;;;;;;;8.30;4.90;;;1.50;78.60;;;;;;5094756;28;20226;-59
2022/01/21 05:13:06;;;;;;;8.10;5.95;;;1.50;78.80;;;;;;5094733;28;20626;-56
2022/01/21 05:15:46;;;;;;;7.35;5.70;;;1.60;78.40;;;;;;5093585;28;20204;-59
2022/01/21 05:18:13;;;;;;;6.65;5.28;;;1.60;78.50;;;;;;5094628;28;20708;-59
2022/01/21 05:20:40;;;;;;;10.60;6.25;;;1.60;78.50;;;;;;5094632;28;20677;-60
2022/01/21 05:23:07;;;;;;;7.97;6.25;;;1.60;78.20;;;;;;5094594;28;20200;-60
2022/01/21 05:25:34;;;;;;;8.43;5.93;;;1.50;78.40;;;;;;5094240;28;20243;-60
2022/01/21 05:28:02;;;;;;;7.72;5.40;;;1.60;78.40;;;;;;5094564;28;20236;-56
2022/01/21 05:30:29;;;;;;;7.90;5.40;;;1.60;78.20;;;;;;5093141;28;20659;-58
2022/01/21 05:32:56;;;;;;;7.68;6.88;;;1.60;78.10;;;;;;5094478;28;20291;-58
2022/01/21 05:35:23;;;;;;;7.63;6.13;;;1.50;78.40;;;;;;5094288;28;20203;-59
2022/01/21 05:37:50;;;;;;;9.90;6.30;;;1.40;78.80;;;;;;5094069;28;20242;-55
2022/01/21 05:40:19;;;;;;;7.13;5.90;;;1.40;79.10;;;;;;5094310;28;20291;-58
2022/01/21 05:42:47;;;;;;;12.60;5.72;;;1.50;78.90;;;;;;5094092;28;20644;-58
2022/01/21 05:48:08;;;;;;;7.70;6.38;;;1.70;78.40;;;;;;5057620;28;20196;-58
2022/01/21 05:50:35;;;;;;;9.75;6.47;;;1.80;77.90;;;;;;5093947;28;20196;-59
2022/01/21 05:53:05;;;;;;;10.68;6.70;;;1.80;77.50;;;;;;5093941;28;20626;-59
2022/01/21 05:55:32;;;;;;;8.95;6.10;;;1.80;77.50;;;;;;5093824;28;20678;-58
2022/01/21 05:57:58;;;;;;;8.45;6.72;;;1.80;77.60;;;;;;5093793;28;20641;-59
2022/01/21 06:00:27;;;;;;;6.50;6.00;;;1.80;77.40;;;;;;5092562;28;20300;-60
2022/01/21 06:02:54;;;;;;;15.82;7.05;;;1.80;77.50;;;;;;5093604;28;20232;-57
2022/01/21 06:05:21;;;;;;;9.00;6.00;;;1.60;77.50;;;;;;5093674;28;20658;-60
2022/01/21 06:07:48;;;;;;;7.38;6.13;;;1.30;78.60;;;;;;5093717;28;20215;-58
2022/01/21 06:10:14;;;;;;;5.88;5.32;;;1.30;79.10;;;;;;5093740;28;20210;-58
2022/01/21 06:12:41;;;;;;;7.32;6.53;;;1.30;79.60;;;;;;5093500;28;20207;-56
2022/01/21 06:15:09;;;;;;;14.73;6.80;;;1.20;79.40;;;;;;5092358;28;20207;-58
2022/01/21 06:17:37;;;;;;;9.63;5.43;;;1.00;80.00;;;;;;5093406;28;20340;-58
2022/01/21 06:20:05;;;;;;;11.13;6.68;;;0.90;80.70;;;;;;5093585;28;20244;-59
2022/01/21 06:22:33;;;;;;;8.23;5.90;;;1.00;81.10;;;;;;5093477;28;20246;-59
2022/01/21 06:25:00;;;;;;;8.57;6.95;;;1.10;80.20;;;;;;5093479;28;20253;-58
2022/01/21 06:27:27;;;;;;;10.35;6.80;;;1.00;79.60;;;;;;5093221;28;20200;-55
2022/01/21 06:29:55;;;;;;;11.73;6.35;;;1.00;80.60;;;;;;5092149;28;20212;-58
2022/01/21 06:32:22;;;;;;;6.82;5.68;;;1.10;80.40;;;;;;5093067;28;20204;-58
2022/01/21 06:34:50;;;;;;;5.55;5.05;;;1.40;80.40;;;;;;5093187;28;20303;-58
2022/01/21 06:37:17;;;;;;;12.10;6.70;;;1.40;80.30;;;;;;5093130;28;20326;-58
2022/01/21 06:39:44;;;;;;;10.38;6.28;;;1.50;79.90;;;;;;5093218;28;20575;-58
2022/01/21 06:42:11;;;;;;;10.95;6.93;;;1.70;79.40;;;;;;5092922;28;20210;-57
2022/01/21 06:44:38;;;;;;;12.75;7.05;;;1.80;78.40;;;;;;5092012;28;20210;-59
2022/01/21 06:47:05;;;;;;;13.90;7.13;;;1.90;78.00;;;;;;5093113;28;20222;-60
2022/01/21 06:49:32;;;;;;;13.30;6.00;;;1.90;78.00;;;;;;5092948;28;20199;-59
2022/01/21 06:52:00;;;;;;;7.70;6.30;;;1.90;77.50;;;;;;5093018;28;20210;-58
2022/01/21 06:54:27;;;;;;;7.97;6.57;;;1.90;77.60;;;;;;5092994;28;20204;-56
2022/01/21 06:56:54;;;;;;;15.82;7.75;;;2.00;77.60;;;;;;5092683;28;20220;-61
2022/01/21 06:59:21;;;;;;;11.52;6.93;;;2.00;77.30;;;;;;5091596;28;20200;-57
2022/01/21 07:01:48;;;;;;;9.05;6.88;;;2.00;76.70;;;;;;5092967;28;20204;-58
2022/01/21 07:04:15;;;;;;;9.48;6.25;;;1.90;77.10;;;;;;5092727;28;20239;-59
2022/01/21 07:06:42;;;;;;;8.75;6.65;;;1.90;77.60;;;;;;5092806;28;20296;-58
2022/01/21 07:09:10;;;;;;;9.43;6.75;;;1.90;77.00;;;;;;5092791;28;20214;-57
2022/01/21 07:11:37;;;;;;;8.27;6.10;;;1.90;77.10;;;;;;5092634;28;20200;-58
2022/01/21 07:14:04;;;;;;;13.25;7.15;;;1.90;77.40;;;;;;5091336;28;20210;-59
2022/01/21 07:16:31;;;;;;;8.00;7.20;;;1.80;78.50;;;;;;5092693;28;20609;-56
2022/01/21 07:18:58;;;;;;;10.45;6.95;;;1.80;78.00;;;;;;5092588;28;20227;-60
2022/01/21 07:21:25;;;;;;;12.23;6.82;;;1.90;77.80;;;;;;5092735;28;20200;-58
2022/01/21 07:23:52;;;;;;;9.45;7.68;;;1.90;77.20;;;;;;5092525;28;20316;-55
2022/01/21 07:26:20;;;;;;;11.85;7.00;;;2.00;77.60;;;;;;5092467;28;20257;-55
2022/01/21 07:28:47;;;;;;;11.68;7.57;;;2.00;77.40;;;;;;5091191;28;20214;-58
2022/01/21 07:31:14;;;;;;;10.23;7.55;;;2.10;77.10;;;;;;5092492;28;20211;-59
2022/01/21 07:33:41;;;;;;;11.55;7.20;;;2.10;77.20;;;;;;5092524;28;20247;-57
2022/01/21 07:36:08;;;;;;;8.98;6.93;;;2.20;77.20;;;;;;5092582;28;20246;-59
2022/01/21 07:38:35;;;;;;;8.15;5.78;;;2.20;76.70;;;;;;5092297;28;20322;-59
2022/01/21 07:41:02;;;;;;;10.30;7.90;;;2.10;76.40;;;;;;5092217;28;20200;-59
2022/01/21 07:43:30;;;;;;;8.15;6.47;;;2.10;76.40;;;;;;5091101;28;20204;-56
2022/01/21 07:45:57;;;;;;;9.27;8.48;;;2.10;76.90;;;;;;5094718;28;20212;-58
2022/01/21 07:48:23;;;;;;;8.85;6.82;;;2.00;76.40;;;;;;5096363;28;20203;-56
2022/01/21 07:50:50;;;;;;;8.10;6.80;;;1.90;77.10;;;;;;5096354;28;20676;-57
2022/01/21 07:53:17;;;;;;;9.50;6.90;;;1.90;77.40;;;;;;5096192;28;20222;-57
2022/01/21 07:55:44;;;;;;;13.02;7.43;;;2.00;77.40;;;;;;5096120;28;20260;-58
2022/01/21 07:58:11;;;;;;;16.02;8.40;;;2.10;76.80;;;;;;5095981;28;20238;-58
2022/01/21 08:00:40;;;;;;;10.88;8.40;;;2.00;75.70;;;;;;5094915;28;20496;-55
2022/01/21 08:03:06;;;;;;;12.30;8.23;;;1.50;77.00;;;;;;5095946;28;20228;-58
2022/01/21 08:05:34;;;;;;;11.05;7.88;;;1.40;78.20;;;;;;5096137;28;20249;-59
2022/01/21 08:08:01;;;;;;;10.40;8.00;;;1.50;78.10;;;;;;5095845;28;20235;-56
2022/01/21 08:10:28;;;;;;;11.32;7.97;;;1.50;78.00;;;;;;5095816;28;20200;-56
2022/01/21 08:12:55;;;;;;;14.52;7.88;;;1.60;78.60;;;;;;5095754;28;20204;-60
2022/01/21 08:15:22;;;;;;;9.95;7.85;;;1.80;78.30;;;;;;5094537;28;20204;-56
2022/01/21 08:17:50;;;;;;;9.98;7.90;;;1.80;77.20;;;;;;5095717;28;20234;-60
2022/01/21 08:20:17;;;;;;;12.23;7.43;;;1.80;77.10;;;;;;5095802;28;20200;-59
2022/01/21 08:22:44;;;;;;;9.63;7.90;;;1.80;76.80;;;;;;5095754;28;20347;-59
2022/01/21 08:25:11;;;;;;;10.65;7.40;;;1.70;77.20;;;;;;5095549;28;20220;-57
2022/01/21 08:27:38;;;;;;;9.82;8.30;;;1.70;78.10;;;;;;5095485;28;20203;-55
2022/01/21 08:30:06;;;;;;;11.23;8.38;;;1.80;77.90;;;;;;5094381;28;20240;-57
2022/01/21 08:32:33;;;;;;;16.00;8.15;;;1.90;77.20;;;;;;5095581;28;20200;-59
2022/01/21 08:35:02;;;;;;;11.63;7.45;;;1.80;77.30;;;;;;5095395;28;20227;-59
2022/01/21 08:37:29;;;;;;;8.35;7.55;;;2.00;77.40;;;;;;5095136;28;20235;-58
2022/01/21 08:39:55;;;;;;;12.10;8.05;;;1.80;76.70;;;;;;5095350;28;20254;-58
2022/01/21 08:42:22;;;;;;;12.65;7.60;;;1.70;77.80;;;;;;5095120;28;20196;-57
2022/01/21 08:44:49;;;;;;;14.65;8.88;;;1.90;77.50;;;;;;5093830;28;20207;-57
2022/01/21 08:47:16;;;;;;;11.00;8.48;;;1.90;76.60;;;;;;5095286;28;20208;-56
2022/01/21 08:49:44;;;;;;;12.65;7.35;;;2.10;77.30;;;;;;5095061;28;20200;-59
2022/01/21 08:52:19;;;;;;;9.85;8.77;;;2.00;76.40;;;;;;5094875;28;20204;-57
2022/01/21 08:54:46;;;;;;;13.10;8.95;;;1.90;77.10;;;;;;5095064;28;20211;-59
2022/01/21 08:57:14;;;;;;;10.02;8.30;;;2.00;77.00;;;;;;5094560;28;20200;-59
2022/01/21 08:59:41;;;;;;;10.68;7.97;;;2.10;76.60;;;;;;5093683;28;20219;-57
2022/01/21 09:02:08;;;;;;;10.68;8.90;;;2.20;76.50;;;;;;5094692;28;20570;-59
2022/01/21 09:04:35;;;;;;;12.68;9.68;;;2.20;75.70;;;;;;5094712;28;20202;-59
2022/01/21 09:07:03;;;;;;;10.32;8.25;;;2.30;76.00;;;;;;5094727;28;20204;-59
2022/01/21 09:09:31;;;;;;;15.85;9.00;;;2.30;76.10;;;;;;5095000;28;20205;-58
2022/01/21 09:12:00;;;;;;;10.90;9.23;;;2.40;75.90;;;;;;5094717;28;20559;-60
2022/01/21 09:14:27;;;;;;;13.90;8.73;;;2.10;75.50;;;;;;5093336;28;20204;-58
2022/01/21 09:16:55;;;;;;;16.33;9.55;;;2.00;76.70;;;;;;5094767;28;20204;-56
2022/01/21 09:19:23;;;;;;;11.35;8.68;;;2.10;76.40;;;;;;5094490;28;20228;-63
2022/01/21 09:21:51;;;;;;;11.88;9.10;;;2.20;76.20;;;;;;5094646;28;20196;-59
2022/01/21 09:24:18;;;;;;;12.35;8.48;;;2.20;75.50;;;;;;5094468;28;20306;-57
2022/01/21 09:26:47;;;;;;;13.80;8.15;;;2.10;76.00;;;;;;5094307;28;20638;-59
2022/01/21 09:29:15;;;;;;;11.00;7.80;;;2.10;76.40;;;;;;5093143;28;20210;-58
2022/01/21 09:31:43;;;;;;;10.60;9.05;;;1.70;76.30;;;;;;5094293;28;20204;-60
2022/01/21 09:34:10;;;;;;;15.02;9.63;;;1.70;77.70;;;;;;5094399;28;20237;-55
2022/01/21 09:36:37;;;;;;;10.63;8.18;;;1.90;77.50;;;;;;5094240;28;20239;-58
2022/01/21 09:39:05;;;;;;;8.65;7.15;;;2.20;77.20;;;;;;5094121;28;20235;-59
2022/01/21 09:41:32;;;;;;;14.95;8.88;;;2.20;76.70;;;;;;5094176;28;20208;-57
2022/01/21 09:44:03;;;;;;;12.60;9.77;;;2.20;76.40;;;;;;5092855;28;20200;-59
2022/01/21 09:46:34;;;;;;;12.63;8.90;;;1.90;76.50;;;;;;5094067;28;20204;-60
2022/01/21 09:49:20;;;;;;;12.77;7.35;;;1.70;76.60;;;;;;5094066;28;20204;-60
2022/01/21 09:51:50;;;;;;;10.18;8.63;;;1.60;77.70;;;;;;5093989;28;20571;-54
2022/01/21 09:54:17;;;;;;;14.85;8.73;;;1.90;77.40;;;;;;5093989;28;20200;-53
2022/01/21 09:56:47;;;;;;;8.68;7.53;;;1.70;77.10;;;;;;5093597;28;20208;-58
2022/01/21 09:59:17;;;;;;;10.68;8.15;;;1.90;77.80;;;;;;5092521;28;20231;-58
2022/01/21 10:01:49;;;;;;;9.48;7.10;;;2.10;77.30;;;;;;5093838;28;20622;-59
2022/01/21 10:04:17;;;;;;;10.55;9.30;;;2.10;76.00;;;;;;5093589;28;20703;-56
2022/01/21 10:06:46;;;;;;;9.63;7.25;;;2.40;76.40;;;;;;5093705;28;20215;-58
2022/01/21 10:09:15;;;;;;;8.60;7.18;;;2.60;76.10;;;;;;5092832;28;20203;-58
2022/01/21 10:11:47;;;;;;;11.73;8.63;;;2.80;75.60;;;;;;5093530;28;20299;-57
2022/01/21 10:14:16;;;;;;;11.05;8.73;;;2.70;73.80;;;;;;5092227;28;20204;-59
2022/01/21 10:16:43;;;;;;;10.48;8.73;;;2.90;74.10;;;;;;5093544;28;20558;-58
2022/01/21 10:19:11;;;;;;;9.77;8.63;;;3.00;73.60;;;;;;5093336;28;20232;-59
2022/01/21 10:21:39;;;;;;;10.02;8.95;;;3.10;74.10;;;;;;5093353;28;20200;-56
2022/01/21 10:24:09;;;;;;;13.73;8.27;;;3.20;73.80;;;;;;5093362;28;20315;-55
2022/01/21 10:26:45;;;;;;;10.40;8.82;;;3.20;73.70;;;;;;5093083;28;20681;-56
2022/01/21 10:29:13;;;;;;;8.95;7.30;;;3.20;73.70;;;;;;5091897;28;20565;-55
2022/01/21 10:31:51;;;;;;;10.70;8.77;;;3.30;73.20;;;;;;5093196;28;20295;-58
2022/01/21 10:34:26;;;;;;;11.13;9.10;;;3.00;73.30;;;;;;5093083;28;20291;-59
2022/01/21 10:36:56;;;;;;;9.60;8.63;;;2.90;74.30;;;;;;5093072;28;20681;-59
2022/01/21 10:39:31;;;;;;;12.52;9.32;;;3.00;73.70;;;;;;5093039;28;20232;-60
2022/01/21 10:41:59;;;;;;;9.60;8.57;;;3.10;73.10;;;;;;5092831;28;20203;-55
2022/01/21 10:44:30;;;;;;;8.95;8.10;;;3.20;73.30;;;;;;5091816;28;20207;-58
2022/01/21 10:47:08;;;;;;;12.20;10.40;;;3.20;73.30;;;;;;5093074;28;20423;-58
2022/01/21 10:49:39;;;;;;;14.52;8.30;;;3.00;72.60;;;;;;5093026;28;20203;-56
2022/01/21 10:52:09;;;;;;;7.93;7.13;;;2.80;73.40;;;;;;5093086;28;20200;-58
2022/01/21 10:54:42;;;;;;;14.27;8.80;;;2.70;73.80;;;;;;5093087;28;20622;-57
2022/01/21 10:57:11;;;;;;;14.73;8.70;;;2.60;74.30;;;;;;5092773;28;20589;-56
2022/01/21 10:59:57;;;;;;;12.18;9.10;;;2.70;74.60;;;;;;5091390;28;20279;-60
2022/01/21 11:02:41;;;;;;;11.00;8.35;;;2.90;74.70;;;;;;5092701;28;20654;-55
2022/01/21 11:05:13;;;;;;;11.05;8.75;;;3.00;74.00;;;;;;5092788;28;20690;-59
2022/01/21 11:07:55;;;;;;;8.82;7.65;;;2.90;73.20;;;;;;5092568;28;20295;-59
2022/01/21 11:10:44;;;;;;;9.00;7.50;;;3.00;73.70;;;;;;5092793;28;20704;-57
2022/01/21 11:13:29;;;;;;;9.55;8.65;;;3.20;73.40;;;;;;5092573;28;20673;-60
2022/01/21 11:15:58;;;;;;;10.65;8.63;;;3.00;73.50;;;;;;5092578;28;20206;-55
2022/01/21 11:18:29;;;;;;;12.27;5.47;;;3.10;74.00;;;;;;5092662;28;20216;-59
2022/01/21 11:21:04;;;;;;;10.30;6.80;;;3.10;72.70;;;;;;5096668;28;20215;-59
2022/01/21 11:23:32;;;;;;;9.35;8.45;;;2.90;72.90;;;;;;5096801;28;20587;-56
2022/01/21 11:26:01;;;;;;;12.02;8.55;;;2.90;73.80;;;;;;5096901;28;20273;-57
2022/01/21 11:28:37;;;;;;;8.88;6.00;;;3.00;73.80;;;;;;5095356;28;20243;-55
2022/01/21 11:31:05;;;;;;;8.80;8.05;;;3.30;73.20;;;;;;5096782;28;20199;-59
2022/01/21 11:33:34;;;;;;;8.50;7.78;;;3.40;71.60;;;;;;5096591;28;20199;-57
2022/01/21 11:36:02;;;;;;;7.97;7.18;;;3.30;71.20;;;;;;5096567;28;20203;-60
2022/01/21 11:38:30;;;;;;;8.93;8.30;;;3.40;72.00;;;;;;5096480;28;20228;-56
2022/01/21 11:40:57;;;;;;;7.43;6.82;;;3.50;71.50;;;;;;5096369;28;20204;-56
2022/01/21 11:43:24;;;;;;;8.30;7.50;;;3.50;70.00;;;;;;5095820;28;20211;-55
2022/01/21 11:48:51;;;;;;;8.75;8.10;;;3.30;71.50;;;;;;5048151;28;20200;-57
2022/01/21 11:51:23;;;;;;;9.18;7.97;;;3.20;71.10;;;;;;5096325;28;20202;-61
2022/01/21 11:53:52;;;;;;;9.00;8.20;;;3.30;72.60;;;;;;5096295;28;20214;-58
2022/01/21 11:56:42;;;;;;;9.63;8.80;;;3.40;72.50;;;;;;5096240;28;20200;-58
2022/01/21 11:59:22;;;;;;;9.38;6.93;;;3.50;70.30;;;;;;5094644;28;20786;-59
2022/01/21 12:01:50;;;;;;;9.18;7.75;;;3.40;70.80;;;;;;5095914;28;20208;-59
2022/01/21 12:04:40;;;;;;;12.55;8.68;;;3.40;71.50;;;;;;5095881;28;20230;-59
2022/01/21 12:07:48;;;;;;;10.40;9.10;;;3.40;72.10;;;;;;5095947;28;20210;-58
2022/01/21 12:10:17;;;;;;;14.07;7.68;;;3.50;70.90;;;;;;5095819;28;20204;-59
2022/01/21 12:13:07;;;;;;;8.55;7.65;;;3.60;70.40;;;;;;5095762;28;20290;-59
2022/01/21 12:16:18;;;;;;;8.60;7.90;;;3.70;70.30;;;;;;5094550;28;20295;-59
2022/01/21 12:21:52;;;;;;;8.93;7.97;;;3.50;69.90;;;;;;5095639;28;20196;-56
2022/01/21 12:25:00;;;;;;;10.02;8.00;;;3.60;70.00;;;;;;5095851;28;20241;-59
2022/01/21 12:27:27;;;;;;;8.30;7.50;;;3.70;69.90;;;;;;5095517;28;20669;-55
2022/01/21 12:30:23;;;;;;;8.50;5.03;;;3.50;69.00;;;;;;5094245;28;20291;-60
2022/01/21 12:32:54;;;;;;;7.72;6.88;;;3.60;69.70;;;;;;5095301;28;20223;-58
2022/01/21 12:35:21;;;;;;;9.93;6.70;;;3.40;70.70;;;;;;5095376;28;20235;-59
2022/01/21 12:41:01;;;;;;;8.05;7.38;;;3.50;72.30;;;;;;5095460;28;20219;-55
2022/01/21 12:43:42;;;;;;;7.15;6.57;;;3.60;71.20;;;;;;5094278;28;20286;-56
2022/01/21 12:46:12;;;;;;;8.43;7.57;;;3.60;70.70;;;;;;5095244;28;20658;-60
2022/01/21 12:48:39;;;;;;;7.25;6.47;;;3.70;71.30;;;;;;5095294;28;20200;-60
2022/01/21 12:51:20;;;;;;;7.82;7.22;;;3.70;70.50;;;;;;5095199;28;20288;-56
2022/01/21 12:56:47;;;;;;;7.20;6.75;;;3.80;70.40;;;;;;5095179;28;20203;-59
2022/01/21 12:59:16;;;;;;;7.70;7.10;;;3.90;70.20;;;;;;5093503;28;20238;-57
2022/01/21 13:01:43;;;;;;;14.68;7.05;;;3.80;70.20;;;;;;5095047;28;20200;-58
2022/01/21 13:04:21;;;;;;;8.25;7.47;;;3.80;70.70;;;;;;5094785;28;20240;-59
2022/01/21 13:06:55;;;;;;;7.45;6.85;;;3.90;70.80;;;;;;5094771;28;20577;-55
2022/01/21 13:09:43;;;;;;;10.52;9.43;;;3.80;70.40;;;;;;5094862;28;20215;-59
2022/01/21 13:12:12;;;;;;;7.70;7.10;;;3.70;70.70;;;;;;5094712;28;20227;-60
2022/01/21 13:14:45;;;;;;;7.90;7.10;;;3.70;70.60;;;;;;5093454;28;20208;-59
2022/01/21 13:17:18;;;;;;;8.93;7.00;;;3.60;70.60;;;;;;5094693;28;20579;-60
2022/01/21 13:19:46;;;;;;;8.68;6.97;;;3.60;71.00;;;;;;5094641;28;20231;-60
2022/01/21 13:22:18;;;;;;;6.78;6.20;;;3.50;71.40;;;;;;5094567;28;20323;-60
2022/01/21 13:25:03;;;;;;;8.00;7.28;;;3.30;72.30;;;;;;5094458;28;20654;-59
2022/01/21 13:27:31;;;;;;;7.43;6.80;;;3.20;72.70;;;;;;5094409;28;20589;-60
2022/01/21 13:30:00;;;;;;;7.22;6.30;;;3.20;73.00;;;;;;5093234;28;20204;-61
2022/01/21 13:32:27;;;;;;;11.15;7.18;;;3.20;73.00;;;;;;5094384;28;20203;-60
2022/01/21 13:35:06;;;;;;;9.98;7.22;;;3.30;73.00;;;;;;5094181;28;20734;-60
2022/01/21 13:37:33;;;;;;;8.00;7.25;;;3.20;73.90;;;;;;5094230;28;20207;-59
2022/01/21 13:40:04;;;;;;;7.97;7.38;;;3.30;73.30;;;;;;5093937;28;20323;-61
2022/01/21 13:42:31;;;;;;;9.15;6.97;;;3.40;73.20;;;;;;5093071;28;20205;-61
2022/01/21 13:45:04;;;;;;;8.10;7.22;;;3.50;72.30;;;;;;5092699;28;20650;-57
2022/01/21 13:47:33;;;;;;;7.97;6.95;;;3.30;72.20;;;;;;5094124;28;20200;-61
2022/01/21 13:50:04;;;;;;;6.90;6.30;;;3.40;72.90;;;;;;5094003;28;20738;-61
2022/01/21 13:52:37;;;;;;;6.88;6.38;;;3.30;72.10;;;;;;5093934;28;20204;-59
2022/01/21 13:55:07;;;;;;;9.45;6.70;;;3.30;72.60;;;;;;5093914;28;20294;-61
2022/01/21 13:57:34;;;;;;;7.13;6.38;;;3.30;72.70;;;;;;5093689;28;20206;-60